Al Hamla — V7MX9 — position and weather

sailwx.info

Track history (hours):
 
Tides and Currents Weather Stations Pressure Air Temp Water Temp Dewpoint Dewpoint Depression Visibility Wind Speed Wind Dir Waves Ship Positions

Al Hamla

Last reported at 2017-Feb-19 08:18 UTC. Time now 2017-Feb-24 19:28 UTC.
Position N 01°56' E 102°19'.

Length 315 m; draft 9.7 m.

Type: Tanker. MMSI: 538002922.

Date/timePositionNaut miles runAvg speedWind from/ knotsBaromVisibWave heightAir tempDewpointWater temp
2017-Feb-19 08:18N 01°56' E 102°19'1216.6
2017-Feb-19 07:33N 01°51' E 102°30'6115.1
2017-Feb-19 03:32N 01°17' E 103°21'9 9.1
2017-Feb-19 02:33N 01°14' E 103°29'1615.8
2017-Feb-19 01:33N 01°08' E 103°44'1615.2
2017-Feb-19 00:32N 01°15' E 103°58'  
2017-Feb-13 19:23N 01°16' E 104°09'1315.5
2017-Feb-13 18:33N 01°14' E 103°56'1414.3
2017-Feb-13 17:33N 01°06' E 103°44'1312.8
2017-Feb-13 16:33N 01°08' E 103°31'6816.5
2017-Feb-13 12:26N 01°45' E 102°34'1516.8
2017-Feb-13 11:33N 01°51' E 102°21'  
Track history (hours):
 
Tides and Currents Weather Stations Pressure Air Temp Water Temp Dewpoint Dewpoint Depression Visibility Wind Speed Wind Dir Waves Ship Positions

Al Hamla

Last reported at 2017-Feb-19 08:18 UTC. Time now 2017-Feb-24 19:28 UTC.
Position N 01°56' E 102°19'.

Length 315 m; draft 9.7 m.

Type: Tanker. MMSI: 538002922.

Date/timePositionNaut miles runAvg speedWind from/ knotsBaromVisibWave heightAir tempDewpointWater temp
2017-Feb-19 08:18N 01°56' E 102°19'1216.6
2017-Feb-19 07:33N 01°51' E 102°30'6115.1
2017-Feb-19 03:32N 01°17' E 103°21'9 9.1
2017-Feb-19 02:33N 01°14' E 103°29'1615.8
2017-Feb-19 01:33N 01°08' E 103°44'1615.2
2017-Feb-19 00:32N 01°15' E 103°58'  
2017-Feb-13 19:23N 01°16' E 104°09'1315.5
2017-Feb-13 18:33N 01°14' E 103°56'1414.3
2017-Feb-13 17:33N 01°06' E 103°44'1312.8
2017-Feb-13 16:33N 01°08' E 103°31'6816.5
2017-Feb-13 12:26N 01°45' E 102°34'1516.8
2017-Feb-13 11:33N 01°51' E 102°21'  

Dump ship's entire track history